Time;durP1;ratioP1;P1;durP2;ratioP2;P2;SDS_P1;SDS_P2;PMS_P1;PMS_P2;Temp;Humidity;BMP_temperature;BMP_pressure;BME280_temperature;BME280_humidity;BME280_pressure;Samples;Min_cycle;Max_cycle;Signal;HPM_P1;HPM_P2
2021/06/10 00:00:11;;;;;;;12.23;6.20;;;;;;;17.91;62.90;100146.88;125153;1102;104175;-77
2021/06/10 00:03:05;;;;;;;10.83;5.80;;;;;;;17.89;62.87;100146.00;125107;1102;104197;-77
2021/06/10 00:05:36;;;;;;;11.27;5.87;;;;;;;17.87;63.11;100168.98;125141;1101;105681;-77
2021/06/10 00:08:08;;;;;;;12.40;6.23;;;;;;;17.85;62.91;100140.66;125179;1102;105704;-76
2021/06/10 00:10:40;;;;;;;10.30;6.23;;;;;;;17.85;63.07;100132.70;125131;1102;104647;-77
2021/06/10 00:13:10;;;;;;;11.73;6.40;;;;;;;17.83;63.35;100159.23;125107;1102;104150;-77
2021/06/10 00:15:41;;;;;;;10.90;6.10;;;;;;;17.81;63.37;100154.80;125131;1102;104430;-77
2021/06/10 00:18:12;;;;;;;12.10;5.90;;;;;;;17.80;63.44;100140.66;125161;1102;110285;-77
2021/06/10 00:20:43;;;;;;;10.40;5.67;;;;;;;17.82;63.35;100156.58;125131;1102;104750;-76
2021/06/10 00:23:14;;;;;;;10.13;6.13;;;;;;;17.77;63.36;100145.96;125124;1102;103599;-77
2021/06/10 00:25:45;;;;;;;13.37;6.40;;;;;;;17.77;63.41;100153.92;125134;1102;104332;-78
2021/06/10 00:28:15;;;;;;;13.33;6.60;;;;;;;17.75;63.68;100155.70;125226;1101;104703;-77
2021/06/10 00:30:46;;;;;;;12.47;6.30;;;;;;;17.72;63.49;100129.16;126131;1099;104181;-77
2021/06/10 00:33:16;;;;;;;11.23;5.60;;;;;;;17.69;63.72;100139.77;126134;1099;104194;-77
2021/06/10 00:35:47;;;;;;;10.53;6.13;;;;;;;17.65;63.71;100140.64;126146;1099;104314;-77
2021/06/10 00:38:17;;;;;;;11.17;5.73;;;;;;;17.66;63.92;100145.08;126054;1099;104172;-77
2021/06/10 00:40:47;;;;;;;10.80;5.77;;;;;;;17.65;63.80;100137.99;126149;1099;104149;-77
2021/06/10 00:43:18;;;;;;;10.90;5.43;;;;;;;17.67;64.00;100144.17;126135;1098;104150;-78
2021/06/10 00:45:49;;;;;;;14.90;6.33;;;;;;;17.64;63.78;100145.08;126123;1099;104153;-77
2021/06/10 00:48:19;;;;;;;11.17;6.00;;;;;;;17.61;63.84;100137.98;126073;1099;104342;-77
2021/06/10 00:50:51;;;;;;;12.70;5.80;;;;;;;17.56;64.24;100138.85;125041;1099;104207;-78
2021/06/10 00:53:21;;;;;;;10.33;5.70;;;;;;;17.48;64.12;100132.66;125095;1099;104240;-77
2021/06/10 00:55:54;;;;;;;10.93;5.77;;;;;;;17.40;64.04;100137.95;126125;1099;104130;-77
2021/06/10 00:58:25;;;;;;;10.57;5.80;;;;;;;17.31;64.11;100122.92;126074;1099;104258;-78
2021/06/10 01:00:56;;;;;;;13.20;6.05;;;;;;;17.23;64.48;100120.25;126098;1099;104277;-77
2021/06/10 01:03:27;;;;;;;9.47;5.70;;;;;;;17.19;64.41;100114.94;126136;1099;104254;-77
2021/06/10 01:06:01;;;;;;;11.13;6.03;;;;;;;17.13;64.28;100112.27;125204;1099;104147;-78
2021/06/10 01:08:43;;;;;;;10.60;5.87;;;;;;;17.09;64.65;100108.70;126263;1098;104216;-79
2021/06/10 01:11:22;;;;;;;11.50;6.03;;;;;;;17.06;64.38;100121.95;126293;1099;104140;-78
2021/06/10 01:14:06;;;;;;;10.77;6.00;;;;;;;17.02;64.55;100114.89;126268;1099;104315;-79
2021/06/10 01:16:40;;;;;;;13.20;6.00;;;;;;;17.00;64.30;100117.53;126288;1099;104162;-78
2021/06/10 01:19:17;;;;;;;10.00;6.10;;;;;;;16.96;64.43;100122.81;126248;1099;104140;-79
2021/06/10 01:21:50;;;;;;;13.37;6.13;;;;;;;16.88;65.07;100121.02;126230;1099;104178;-78
2021/06/10 01:24:36;;;;;;;14.00;6.30;;;;;;;16.83;65.23;100130.69;126274;1099;104190;-79
2021/06/10 01:27:17;;;;;;;14.03;6.47;;;;;;;16.79;65.07;100126.23;126303;1099;104220;-79
2021/06/10 01:29:53;;;;;;;12.93;6.37;;;;;;;16.75;65.07;100127.12;126205;1099;108058;-80
2021/06/10 01:32:25;;;;;;;10.87;6.50;;;;;;;16.71;65.26;100127.98;126292;1099;104169;-79
2021/06/10 01:34:58;;;;;;;13.00;6.40;;;;;;;16.70;65.51;100135.05;126303;1099;104601;-78
2021/06/10 01:37:29;;;;;;;11.15;6.40;;;;;;;16.70;65.55;100134.14;125374;1099;104158;-78
2021/06/10 01:40:03;;;;;;;11.00;5.90;;;;;;;16.65;65.17;100138.54;126213;1099;118827;-79
2021/06/10 01:42:36;;;;;;;11.47;6.70;;;;;;;16.61;65.40;100137.65;126292;1099;104146;-79
2021/06/10 01:45:09;;;;;;;12.05;6.03;;;;;;;16.57;65.90;100134.98;126280;1099;104146;-79
2021/06/10 01:47:47;;;;;;;13.80;6.40;;;;;;;16.52;65.29;100135.83;126268;1099;104150;-78
2021/06/10 01:50:21;;;;;;;12.00;6.05;;;;;;;16.51;65.39;100135.81;126350;1099;106924;-80
2021/06/10 01:52:55;;;;;;;12.80;6.73;;;;;;;16.50;65.97;100132.30;125330;1099;104351;-79
2021/06/10 01:55:41;;;;;;;11.95;6.70;;;;;;;16.47;65.52;100126.98;126253;1098;104211;-78
2021/06/10 01:58:30;;;;;;;10.87;5.93;;;;;;;16.46;66.13;100130.49;126256;1099;104172;-78
2021/06/10 02:01:03;;;;;;;12.73;6.13;;;;;;;16.44;66.21;100134.91;126261;1099;104160;-78
2021/06/10 02:03:34;;;;;;;11.43;6.17;;;;;;;16.41;66.24;100131.33;126303;1099;104220;-78
2021/06/10 02:06:09;;;;;;;10.10;6.30;;;;;;;16.38;66.02;100134.87;126287;1099;104140;-78
2021/06/10 02:08:41;;;;;;;9.87;6.10;;;;;;;16.39;66.42;100127.80;126256;1099;104340;-78
2021/06/10 02:11:13;;;;;;;13.33;6.43;;;;;;;16.37;66.46;100135.73;126274;1099;104146;-78
2021/06/10 02:13:45;;;;;;;11.63;5.87;;;;;;;16.34;65.72;100126.00;126283;1099;104153;-78
2021/06/10 02:16:17;;;;;;;10.40;5.90;;;;;;;16.35;66.05;100132.20;126334;1098;102837;-78
2021/06/10 02:18:49;;;;;;;12.60;5.97;;;;;;;16.34;66.41;100133.94;126230;1099;104218;-77
2021/06/10 02:21:19;;;;;;;11.63;6.17;;;;;;;16.32;66.63;100127.76;126259;1099;104159;-79
2021/06/10 02:23:50;;;;;;;12.20;6.03;;;;;;;16.39;66.60;100128.67;126293;1099;104147;-79
2021/06/10 02:26:20;;;;;;;10.17;5.47;;;;;;;16.42;66.75;100125.17;126306;1099;104239;-80
2021/06/10 02:28:50;;;;;;;12.47;5.97;;;;;;;16.41;66.32;100132.23;125255;1099;104181;-79
2021/06/10 02:31:21;;;;;;;14.47;6.30;;;;;;;16.39;66.16;100133.09;126290;1099;117820;-78
2021/06/10 02:33:51;;;;;;;12.77;5.90;;;;;;;16.38;67.03;100141.91;126256;1099;104758;-79
2021/06/10 02:36:21;;;;;;;11.43;6.10;;;;;;;16.35;66.99;100132.20;126306;1099;104146;-79
2021/06/10 02:38:55;;;;;;;11.10;5.67;;;;;;;16.33;66.94;100139.23;126329;1099;104137;-79
2021/06/10 02:41:27;;;;;;;;;;;;;;;16.31;67.29;100141.89;126296;1099;106951;-78
2021/06/10 02:44:00;;;;;;;11.60;5.93;;;;;;;16.27;66.85;100142.73;126336;1098;104280;-80
2021/06/10 02:46:31;;;;;;;12.10;5.90;;;;;;;16.29;66.54;100142.75;126266;1099;104795;-79
2021/06/10 02:49:03;;;;;;;12.70;6.20;;;;;;;16.32;67.35;100145.42;126347;1099;104192;-79
2021/06/10 02:51:39;;;;;;;11.83;5.97;;;;;;;16.34;67.11;100146.30;126161;1099;104217;-79
2021/06/10 02:54:13;;;;;;;14.53;6.00;;;;;;;16.34;67.26;100152.47;125369;1099;104215;-78
2021/06/10 02:56:42;;;;;;;;;;;;;;;16.36;67.26;100155.13;126329;1099;104265;-79
2021/06/10 02:59:13;;;;;;;13.33;5.67;;;;;;;16.33;67.33;100152.47;126299;1098;104150;-78
2021/06/10 03:01:48;;;;;;;16.80;6.20;;;;;;;16.31;66.52;100151.58;126274;1099;104239;-78
2021/06/10 03:04:18;;;;;;;11.77;5.87;;;;;;;16.26;67.41;100150.67;126294;1099;104143;-78
2021/06/10 03:06:50;;;;;;;10.80;5.70;;;;;;;16.25;67.49;100151.53;126276;1099;104171;-79
2021/06/10 03:09:22;;;;;;;12.20;5.50;;;;;;;16.26;67.62;100145.37;126321;1099;104698;-79
2021/06/10 03:11:54;;;;;;;9.97;5.30;;;;;;;16.27;67.39;100155.98;126231;1099;104134;-80
2021/06/10 03:14:25;;;;;;;11.53;5.70;;;;;;;16.31;67.10;100156.88;126305;1099;104149;-79
2021/06/10 03:16:56;;;;;;;16.10;5.73;;;;;;;16.34;67.65;100155.13;126314;1099;104175;-78
2021/06/10 03:19:27;;;;;;;11.43;5.40;;;;;;;16.37;67.81;100156.04;126260;1099;105803;-79
2021/06/10 03:21:58;;;;;;;10.47;5.33;;;;;;;16.41;67.79;100156.07;125281;1099;104162;-78
2021/06/10 03:24:29;;;;;;;11.50;5.53;;;;;;;16.45;67.74;100157.84;126225;1098;104367;-79
2021/06/10 03:27:01;;;;;;;11.13;5.70;;;;;;;16.45;67.33;100152.55;125216;1099;104146;-80
2021/06/10 03:29:33;;;;;;;10.37;5.30;;;;;;;16.45;67.37;100155.19;126290;1099;104159;-77
2021/06/10 03:32:03;;;;;;;8.70;5.13;;;;;;;16.45;67.90;100149.02;126221;1099;104150;-79
2021/06/10 03:34:35;;;;;;;12.13;5.33;;;;;;;16.46;67.45;100151.68;126302;1099;104255;-79
2021/06/10 03:37:06;;;;;;;12.27;5.20;;;;;;;16.47;67.32;100155.20;126263;1099;104153;-79
2021/06/10 03:39:39;;;;;;;12.47;6.07;;;;;;;16.50;67.17;100148.19;126253;1099;104134;-77
2021/06/10 03:42:12;;;;;;;10.80;5.20;;;;;;;16.54;67.77;100164.97;126159;1099;104242;-79
2021/06/10 03:44:45;;;;;;;12.20;5.53;;;;;;;16.58;67.58;100152.62;126309;1099;104599;-78
2021/06/10 03:47:18;;;;;;;11.30;5.60;;;;;;;16.63;67.24;100156.20;126270;1099;104178;-78
2021/06/10 03:49:52;;;;;;;10.53;5.33;;;;;;;16.66;68.01;100156.22;126234;1099;104205;-79
2021/06/10 03:52:27;;;;;;;11.57;5.60;;;;;;;16.69;67.88;100165.06;126225;1099;104162;-79
2021/06/10 03:54:58;;;;;;;13.87;5.70;;;;;;;16.71;67.37;100163.29;125360;1097;104245;-79
2021/06/10 03:57:28;;;;;;;11.50;5.57;;;;;;;16.74;67.35;100167.73;126312;1099;104153;-79
2021/06/10 03:59:59;;;;;;;10.60;5.33;;;;;;;16.77;67.79;100167.75;126280;1099;104166;-78
2021/06/10 04:02:29;;;;;;;12.97;5.13;;;;;;;16.82;67.33;100165.13;126177;1098;104137;-80
2021/06/10 04:04:59;;;;;;;11.70;5.63;;;;;;;16.85;67.38;100165.14;126285;1099;104140;-79
2021/06/10 04:07:30;;;;;;;7.47;4.53;;;;;;;16.89;67.78;100162.55;126262;1099;104245;-81
2021/06/10 04:10:00;;;;;;;15.00;5.20;;;;;;;16.92;67.92;100166.08;126326;1099;104284;-79
2021/06/10 04:12:31;;;;;;;8.63;4.83;;;;;;;16.93;67.99;100157.26;126179;1099;104702;-78
2021/06/10 04:15:03;;;;;;;10.43;5.40;;;;;;;16.97;67.36;100159.02;126211;1099;104156;-78
2021/06/10 04:17:34;;;;;;;11.97;4.80;;;;;;;17.03;67.30;100164.34;126279;1099;104813;-78
2021/06/10 04:20:07;;;;;;;8.70;4.67;;;;;;;17.06;67.18;100153.75;126290;1099;104204;-79
2021/06/10 04:22:38;;;;;;;11.47;5.10;;;;;;;17.09;67.44;100153.77;126131;1099;104172;-79
2021/06/10 04:25:09;;;;;;;12.67;5.23;;;;;;;17.15;67.58;100160.87;126255;1099;104179;-80
2021/06/10 04:27:39;;;;;;;9.27;4.70;;;;;;;17.22;67.57;100157.37;126182;1099;104165;-79
2021/06/10 04:30:13;;;;;;;9.00;4.30;;;;;;;17.28;67.59;100159.13;126290;1099;104165;-78
2021/06/10 04:32:46;;;;;;;10.70;4.80;;;;;;;17.34;67.60;100153.84;126203;1099;104137;-78
2021/06/10 04:35:18;;;;;;;10.90;4.70;;;;;;;17.38;67.36;100160.94;126292;1099;104219;-79
2021/06/10 04:37:49;;;;;;;10.83;5.20;;;;;;;17.39;67.52;100162.69;126296;1099;104198;-79
2021/06/10 04:40:20;;;;;;;9.77;5.13;;;;;;;17.41;67.46;100166.25;126216;1099;104213;-78
2021/06/10 04:42:52;;;;;;;10.07;5.03;;;;;;;17.43;67.48;100169.78;126250;1099;104198;-78
2021/06/10 04:45:27;;;;;;;10.25;5.15;;;;;;;17.45;67.32;100167.13;126237;1099;104211;-78
2021/06/10 04:47:59;;;;;;;12.23;5.30;;;;;;;17.47;67.00;100168.92;126322;1099;104223;-78
2021/06/10 04:50:35;;;;;;;11.15;5.20;;;;;;;17.51;67.26;100168.02;126298;1099;104622;-78
2021/06/10 04:53:07;;;;;;;11.65;4.78;;;;;;;17.55;67.33;100166.28;125647;1099;104188;-78
2021/06/10 04:55:40;;;;;;;11.88;5.10;;;;;;;17.61;67.05;100169.82;126316;1098;104256;-79
2021/06/10 04:58:10;;;;;;;13.83;5.23;;;;;;;17.69;67.42;100172.48;126214;1099;104169;-79
2021/06/10 05:00:42;;;;;;;12.90;4.73;;;;;;;17.76;67.08;100174.28;126107;1099;104258;-79
2021/06/10 05:03:16;;;;;;;13.43;4.97;;;;;;;17.83;67.04;100175.16;126077;1098;104274;-78
2021/06/10 05:05:47;;;;;;;11.80;5.00;;;;;;;17.90;67.10;100182.29;126072;1099;104162;-79
2021/06/10 05:08:19;;;;;;;8.50;4.40;;;;;;;17.97;67.09;100172.55;126060;1099;104165;-78
2021/06/10 05:10:49;;;;;;;10.00;4.43;;;;;;;18.02;66.47;100165.45;125233;1099;104117;-79
2021/06/10 05:13:19;;;;;;;9.40;4.70;;;;;;;18.10;67.10;100174.30;126166;1099;104156;-78
2021/06/10 05:15:49;;;;;;;9.87;4.70;;;;;;;18.16;66.65;100173.42;126159;1099;104316;-77
2021/06/10 05:18:20;;;;;;;10.30;5.00;;;;;;;18.20;66.56;100163.67;126133;1099;104149;-76
2021/06/10 05:20:50;;;;;;;9.30;4.57;;;;;;;18.26;66.84;100161.02;126162;1099;104220;-78
2021/06/10 05:23:22;;;;;;;11.47;4.60;;;;;;;18.35;66.68;100162.78;125165;1102;104852;-78
2021/06/10 05:25:56;;;;;;;9.70;4.60;;;;;;;18.43;66.25;100168.95;125116;1102;104175;-77
2021/06/10 05:28:34;;;;;;;7.10;4.40;;;;;;;18.49;66.62;100167.16;125130;1102;104322;-77
2021/06/10 05:31:06;;;;;;;11.47;4.47;;;;;;;18.56;66.38;100165.41;125066;1102;104188;-77
2021/06/10 05:33:39;;;;;;;7.80;4.40;;;;;;;18.63;66.33;100167.14;125087;1102;104209;-77
2021/06/10 05:36:12;;;;;;;9.07;4.30;;;;;;;18.71;66.55;100166.23;125156;1102;104313;-76
2021/06/10 05:38:42;;;;;;;7.20;4.33;;;;;;;18.75;66.27;100160.91;125167;1102;104158;-77
2021/06/10 05:41:13;;;;;;;7.87;4.60;;;;;;;18.80;65.66;100151.14;125272;1099;104427;-76
2021/06/10 05:43:44;;;;;;;10.57;4.50;;;;;;;18.87;66.15;100157.38;126033;1099;105893;-78
2021/06/10 05:46:16;;;;;;;11.67;4.60;;;;;;;18.94;66.01;100153.78;125879;1099;104178;-76
2021/06/10 05:48:50;;;;;;;8.00;4.50;;;;;;;19.03;65.91;100164.38;125929;1099;104146;-78
2021/06/10 05:51:26;;;;;;;9.80;4.60;;;;;;;19.07;65.39;100164.37;125246;1099;104216;-79
2021/06/10 05:54:00;;;;;;;10.80;4.37;;;;;;;19.12;65.58;100173.20;126104;1099;103424;-79
2021/06/10 05:56:33;;;;;;;10.05;4.78;;;;;;;19.18;65.19;100162.53;126072;1099;104255;-77
2021/06/10 05:59:05;;;;;;;10.80;4.70;;;;;;;19.26;65.89;100166.06;125309;1099;104209;-78
2021/06/10 06:01:38;;;;;;;8.87;4.50;;;;;;;19.33;65.26;100173.09;125242;1099;104189;-78
2021/06/10 06:04:13;;;;;;;14.40;5.37;;;;;;;19.37;65.63;100164.22;125951;1099;104175;-77
2021/06/10 06:06:44;;;;;;;7.97;4.83;;;;;;;19.44;65.21;100166.84;125262;1099;104288;-78
2021/06/10 06:09:16;;;;;;;9.13;4.87;;;;;;;19.50;64.98;100157.03;125247;1099;104274;-77
2021/06/10 06:11:54;;;;;;;9.07;5.00;;;;;;;19.58;64.47;100157.86;125218;1099;104756;-77
2021/06/10 06:14:31;;;;;;;8.07;4.67;;;;;;;19.65;64.78;100160.48;125977;1098;104169;-79
2021/06/10 06:17:06;;;;;;;8.93;4.70;;;;;;;19.73;64.68;100161.33;126124;1099;104385;-79
2021/06/10 06:19:41;;;;;;;12.57;4.90;;;;;;;19.79;64.08;100171.06;126164;1099;104207;-79
2021/06/10 06:22:17;;;;;;;11.23;4.77;;;;;;;19.87;63.81;100161.27;125996;1099;104206;-79
2021/06/10 06:24:52;;;;;;;10.33;5.00;;;;;;;19.95;64.39;100156.75;126086;1099;104146;-79
2021/06/10 06:27:26;;;;;;;11.43;5.17;;;;;;;20.02;64.09;100155.78;125916;1099;104290;-78
2021/06/10 06:29:57;;;;;;;7.13;4.53;;;;;;;20.10;63.51;100158.38;126130;1099;104271;-79
2021/06/10 06:32:30;;;;;;;8.13;4.57;;;;;;;20.21;63.62;100168.94;125220;1099;104162;-78
2021/06/10 06:35:02;;;;;;;9.07;4.73;;;;;;;20.31;63.41;100164.43;125429;1099;104165;-77
2021/06/10 06:37:38;;;;;;;7.42;4.40;;;;;;;20.41;63.81;100166.09;126024;1099;104208;-78
2021/06/10 06:40:09;;;;;;;9.63;4.57;;;;;;;20.47;62.79;100166.03;125855;1099;104271;-78
2021/06/10 06:42:41;;;;;;;8.73;4.80;;;;;;;20.55;62.71;100160.62;126093;1099;104172;-77
2021/06/10 06:45:16;;;;;;;10.20;4.80;;;;;;;20.64;62.97;100165.84;125613;1099;104299;-77
2021/06/10 06:47:49;;;;;;;9.77;4.80;;;;;;;20.76;62.84;100164.88;125165;1102;104290;-79
2021/06/10 06:50:22;;;;;;;12.13;4.87;;;;;;;20.83;62.88;100163.88;126205;1099;104168;-78
2021/06/10 06:52:54;;;;;;;13.60;5.30;;;;;;;20.93;62.29;100154.02;125961;1099;105453;-77
2021/06/10 06:55:29;;;;;;;9.70;5.20;;;;;;;21.00;61.65;100164.59;126022;1099;104377;-77
2021/06/10 06:58:01;;;;;;;10.17;4.60;;;;;;;21.08;61.58;100169.80;126050;1099;105352;-76
2021/06/10 07:00:33;;;;;;;18.83;4.77;;;;;;;21.17;61.75;100167.01;126072;1099;104316;-76
2021/06/10 07:03:07;;;;;;;8.67;4.60;;;;;;;21.30;61.54;100156.17;125881;1098;104226;-76
2021/06/10 07:05:37;;;;;;;16.33;4.83;;;;;;;21.45;60.91;100155.95;125858;1098;104163;-76
2021/06/10 07:08:13;;;;;;;9.20;4.87;;;;;;;21.60;60.53;100157.56;125788;1099;104259;-77
2021/06/10 07:10:44;;;;;;;8.40;4.73;;;;;;;21.72;61.41;100160.05;125111;1099;104239;-75
2021/06/10 07:13:15;;;;;;;11.07;4.53;;;;;;;21.85;60.14;100162.52;126085;1099;104316;-76
2021/06/10 07:15:56;;;;;;;8.37;3.90;;;;;;;21.98;60.50;100145.37;126116;1099;104214;-77
2021/06/10 07:18:30;;;;;;;11.97;4.30;;;;;;;22.19;59.56;100156.59;125248;1102;104131;-78
2021/06/10 07:21:02;;;;;;;9.53;4.67;;;;;;;22.35;59.55;100157.25;126100;1099;104163;-76
2021/06/10 07:23:36;;;;;;;7.60;4.30;;;;;;;22.47;59.36;100150.78;125229;1099;104665;-76
2021/06/10 07:26:08;;;;;;;9.55;4.30;;;;;;;22.66;59.14;100156.64;125977;1099;102078;-75
2021/06/10 07:28:39;;;;;;;9.70;4.27;;;;;;;22.76;59.20;100153.77;125203;1099;104618;-74
2021/06/10 07:31:11;;;;;;;8.07;4.10;;;;;;;22.96;59.10;100165.86;126122;1099;104306;-74
2021/06/10 07:33:43;;;;;;;5.87;3.87;;;;;;;23.16;57.82;100160.13;126238;1099;104153;-76
2021/06/10 07:36:14;;;;;;;9.47;4.03;;;;;;;23.30;56.91;100166.05;126051;1099;104284;-76
2021/06/10 07:38:44;;;;;;;8.43;3.50;;;;;;;23.41;56.63;100164.94;125076;1102;104389;-77
2021/06/10 07:41:16;;;;;;;7.40;3.87;;;;;;;23.59;56.85;100167.20;126210;1099;104195;-77
2021/06/10 07:43:47;;;;;;;5.20;3.10;;;;;;;23.79;56.32;100160.47;126193;1099;104313;-77
2021/06/10 07:46:21;;;;;;;6.20;3.23;;;;;;;23.94;55.37;100160.13;126095;1099;105474;-76
2021/06/10 07:48:56;;;;;;;8.00;3.47;;;;;;;24.09;55.88;100149.94;126085;1099;104251;-76
2021/06/10 07:51:28;;;;;;;7.67;3.10;;;;;;;24.24;54.33;100154.91;126193;1099;104258;-78
2021/06/10 07:54:05;;;;;;;4.53;3.27;;;;;;;24.32;54.76;100158.25;126139;1099;104169;-77
2021/06/10 07:56:35;;;;;;;29.00;4.27;;;;;;;24.36;53.05;100145.67;125168;1099;105547;-74
2021/06/10 07:59:06;;;;;;;9.10;3.50;;;;;;;24.47;52.42;100153.42;125288;1099;105325;-76
2021/06/10 08:01:37;;;;;;;7.90;3.57;;;;;;;24.65;52.63;100150.27;126162;1099;104146;-75
2021/06/10 08:04:08;;;;;;;7.87;3.40;;;;;;;24.71;52.69;100152.78;125200;1099;104166;-75
2021/06/10 08:06:43;;;;;;;4.27;3.17;;;;;;;24.78;52.39;100149.89;125109;1099;104142;-75
2021/06/10 08:09:14;;;;;;;5.40;3.30;;;;;;;24.75;51.53;100150.88;125052;1102;104230;-75
2021/06/10 08:11:48;;;;;;;7.30;3.30;;;;;;;24.79;51.54;100157.90;125215;1099;104165;-75
2021/06/10 08:14:21;;;;;;;4.07;3.20;;;;;;;24.81;51.55;100147.12;125206;1099;104271;-75
2021/06/10 08:16:53;;;;;;;8.28;3.22;;;;;;;24.90;51.09;100144.17;125963;1099;104159;-75
2021/06/10 08:19:31;;;;;;;4.67;2.97;;;;;;;24.88;50.50;100149.59;125236;1099;104146;-75
2021/06/10 08:22:02;;;;;;;6.97;3.27;;;;;;;24.95;50.29;100152.99;126134;1099;104139;-76
2021/06/10 08:24:36;;;;;;;5.63;3.50;;;;;;;25.05;50.36;100140.17;126249;1099;104252;-77
2021/06/10 08:27:08;;;;;;;6.53;3.47;;;;;;;25.14;49.97;100152.45;126187;1097;104185;-77
2021/06/10 08:29:39;;;;;;;12.10;3.33;;;;;;;25.20;50.00;100146.90;126139;1099;104146;-75
2021/06/10 08:32:10;;;;;;;9.20;3.20;;;;;;;25.27;49.86;100135.92;125270;1099;104166;-77
2021/06/10 08:34:43;;;;;;;6.20;3.30;;;;;;;25.34;49.50;100142.01;126201;1098;104192;-76
2021/06/10 08:37:15;;;;;;;8.63;3.70;;;;;;;25.48;49.59;100137.07;126174;1099;104360;-76
2021/06/10 08:39:49;;;;;;;6.57;3.33;;;;;;;25.70;48.85;100131.02;125099;1099;104564;-77
2021/06/10 08:42:24;;;;;;;3.90;3.00;;;;;;;25.81;48.00;100134.22;125256;1099;104165;-77
2021/06/10 08:44:57;;;;;;;4.40;3.10;;;;;;;25.82;48.20;100125.23;125307;1099;104140;-76
2021/06/10 08:47:31;;;;;;;5.33;3.27;;;;;;;25.74;48.19;100124.62;125100;1099;105554;-78
2021/06/10 08:50:04;;;;;;;9.80;3.40;;;;;;;25.65;48.24;100123.10;126071;1099;104188;-75
2021/06/10 08:52:35;;;;;;;6.03;3.20;;;;;;;25.78;48.20;100125.38;125316;1099;104251;-79
2021/06/10 08:55:29;;;;;;;8.80;3.30;;;;;;;25.64;47.86;100120.46;125937;1099;104351;-77
2021/06/10 08:58:00;;;;;;;6.50;3.20;;;;;;;25.52;48.07;100126.23;125133;1099;104312;-76
2021/06/10 09:00:33;;;;;;;4.67;2.90;;;;;;;25.46;47.35;100119.23;125170;1099;104172;-76
2021/06/10 09:03:06;;;;;;;7.07;3.40;;;;;;;25.57;46.36;100121.58;126186;1099;104611;-76
2021/06/10 09:05:37;;;;;;;4.23;3.20;;;;;;;25.68;47.84;100100.64;126173;1099;104245;-76
2021/06/10 09:08:10;;;;;;;6.20;3.53;;;;;;;25.79;47.66;100109.21;125970;1099;104284;-77
2021/06/10 09:10:40;;;;;;;7.03;3.70;;;;;;;25.92;47.23;100109.66;126044;1099;104181;-78
2021/06/10 09:13:14;;;;;;;6.07;3.77;;;;;;;25.91;46.95;100101.66;126234;1099;104195;-78
2021/06/10 09:15:46;;;;;;;4.87;3.10;;;;;;;25.95;46.25;100117.63;125244;1099;104293;-78
2021/06/10 09:18:30;;;;;;;7.37;3.50;;;;;;;25.73;46.01;100111.23;125184;1099;104650;-80
2021/06/10 09:21:03;;;;;;;4.27;3.40;;;;;;;25.69;45.16;100106.88;126086;1099;104149;-78
2021/06/10 09:23:38;;;;;;;4.07;3.47;;;;;;;25.63;45.46;100097.20;126156;1099;104165;-78
2021/06/10 09:26:13;;;;;;;7.10;3.42;;;;;;;25.55;44.99;100096.59;126256;1099;104150;-77
2021/06/10 09:28:48;;;;;;;10.27;3.87;;;;;;;25.44;45.50;100100.48;125524;1099;104306;-77
2021/06/10 09:31:31;;;;;;;6.03;3.57;;;;;;;25.48;45.19;100094.09;125134;1099;104194;-77
2021/06/10 09:34:47;;;;;;;6.30;3.80;;;;;;;25.52;45.61;100089.49;125139;1099;104162;-78
2021/06/10 09:37:30;;;;;;;4.40;3.50;;;;;;;25.66;45.23;100080.98;126126;1099;104137;-77
2021/06/10 09:40:05;;;;;;;5.77;3.50;;;;;;;25.79;45.03;100103.84;126185;1098;110960;-76
2021/06/10 09:42:38;;;;;;;4.53;3.40;;;;;;;25.90;45.23;100099.89;126178;1099;104147;-76
2021/06/10 09:45:15;;;;;;;6.63;3.67;;;;;;;26.08;44.67;100096.60;126092;1099;104165;-77
2021/06/10 09:47:51;;;;;;;6.70;3.80;;;;;;;26.30;45.03;100087.78;125867;1099;104485;-78
2021/06/10 09:50:27;;;;;;;5.33;3.80;;;;;;;26.53;45.08;100081.56;125205;1099;104194;-78
2021/06/10 09:53:02;;;;;;;6.03;3.90;;;;;;;26.67;44.29;100083.77;125162;1099;104178;-79
2021/06/10 09:55:43;;;;;;;8.13;3.73;;;;;;;26.75;43.86;100078.97;126061;1098;104185;-78
2021/06/10 09:58:28;;;;;;;7.57;3.77;;;;;;;26.61;43.83;100086.66;126011;1099;104249;-78
2021/06/10 10:01:01;;;;;;;10.78;4.87;;;;;;;26.22;44.44;100097.94;126129;1099;104160;-78
2021/06/10 10:03:45;;;;;;;11.70;4.75;;;;;;;25.33;45.03;100089.22;125884;1098;104169;-75
2021/06/10 10:06:23;;;;;;;8.17;4.50;;;;;;;24.63;46.23;100097.58;125939;1099;105255;-78
2021/06/10 10:09:26;;;;;;;10.77;4.40;;;;;;;24.23;46.56;100096.84;126136;1099;104159;-77
2021/06/10 10:12:17;;;;;;;9.70;4.77;;;;;;;23.98;46.92;100092.16;124900;1102;104172;-78
2021/06/10 10:14:57;;;;;;;8.17;5.20;;;;;;;23.99;47.37;100085.86;124887;1106;104366;-78
2021/06/10 10:17:33;;;;;;;8.97;4.97;;;;;;;23.86;47.97;100122.81;124821;1105;104316;-78
2021/06/10 10:20:17;;;;;;;12.03;4.60;;;;;;;23.39;48.44;100126.59;124748;1105;104169;-78
2021/06/10 10:22:48;;;;;;;22.60;5.53;;;;;;;22.63;49.20;100143.37;124495;1105;104444;-79
2021/06/10 10:25:22;;;;;;;10.80;4.40;;;;;;;20.91;55.44;100170.03;124564;1105;104520;-78
2021/06/10 10:27:55;;;;;;;10.63;4.70;;;;;;;19.35;57.55;100152.71;124406;1105;104427;-78
2021/06/10 10:30:29;;;;;;;8.73;4.53;;;;;;;18.49;63.27;100151.22;124387;1105;104494;-77
2021/06/10 10:33:12;;;;;;;13.47;5.67;;;;;;;18.14;64.43;100143.34;124608;1105;104379;-78
2021/06/10 10:36:00;;;;;;;;;;;;;;;;;;;;;
2021/06/10 10:38:35;;;;;;;9.23;5.13;;;;;;;18.01;63.05;100130.95;124589;1105;104325;-79
2021/06/10 10:41:14;;;;;;;15.03;5.67;;;;;;;17.99;63.72;100119.45;124470;1106;104623;-79
2021/06/10 10:43:51;;;;;;;15.30;6.07;;;;;;;18.06;63.87;100134.48;124813;1105;104328;-79
2021/06/10 10:46:32;;;;;;;11.70;6.30;;;;;;;18.24;64.34;100126.48;125006;1102;104408;-81
2021/06/10 10:49:22;;;;;;;13.40;6.27;;;;;;;18.41;65.79;100130.90;125134;1102;104338;-81
2021/06/10 10:52:16;;;;;;;10.97;5.57;;;;;;;18.48;65.08;100132.63;124981;1102;117732;-79
2021/06/10 10:54:52;;;;;;;12.90;6.40;;;;;;;18.58;66.21;100126.42;125081;1102;104302;-80
2021/06/10 10:57:44;;;;;;;9.47;5.63;;;;;;;18.67;66.46;100126.39;125178;1102;104166;-79
2021/06/10 11:00:46;;;;;;;8.80;5.13;;;;;;;18.75;67.15;100122.83;125012;1102;104325;-79
2021/06/10 11:03:33;;;;;;;8.73;5.40;;;;;;;18.77;67.49;100115.73;125742;1099;104131;-79
2021/06/10 11:06:38;;;;;;;11.15;5.80;;;;;;;18.83;67.16;100111.26;126211;1099;104242;-79
2021/06/10 11:09:24;;;;;;;10.10;6.07;;;;;;;18.93;67.53;100109.50;125361;1102;104242;-79
2021/06/10 11:12:11;;;;;;;11.57;6.73;;;;;;;19.17;68.67;100107.59;126156;1099;104187;-79
2021/06/10 11:14:54;;;;;;;10.83;6.00;;;;;;;19.42;68.64;100097.67;125327;1099;104648;-79
2021/06/10 11:17:30;;;;;;;10.50;5.87;;;;;;;19.59;67.90;100097.55;125277;1099;104157;-79
2021/06/10 11:20:05;;;;;;;10.03;5.83;;;;;;;19.78;68.75;100090.33;126208;1099;104140;-77
2021/06/10 11:22:43;;;;;;;10.23;5.93;;;;;;;19.97;68.62;100096.36;125054;1102;107076;-78
2021/06/10 11:25:45;;;;;;;8.97;6.00;;;;;;;20.12;68.37;100090.02;125066;1102;104338;-77
2021/06/10 11:28:18;;;;;;;7.50;5.27;;;;;;;20.34;69.16;100088.01;125081;1102;104258;-77
2021/06/10 11:31:11;;;;;;;8.13;5.20;;;;;;;20.49;69.59;100078.97;125113;1102;104328;-78
2021/06/10 11:33:48;;;;;;;10.08;5.17;;;;;;;20.65;69.32;100080.56;125113;1100;104213;-78
2021/06/10 11:36:25;;;;;;;8.38;4.83;;;;;;;20.83;69.56;100066.12;124976;1099;104178;-78
2021/06/10 11:38:58;;;;;;;6.97;4.60;;;;;;;20.93;69.84;100060.67;125058;1102;104155;-78